Thursday, March 30, 2017, 2:24 PM EDT
Back to Local

KLEB, Lebanon Municipal Airport

Location: Lebanon, NH, United States Lat: 43.633
Local Time: 2:24 PM EDT (18:24 GMT) Lon: -72.3
Time Zone: US/Eastern Elev: 597 ft

Show me the last for .
Show Coded

Time T Td Feel RH Dir Speed Gust Alt SLP Vis Weather Sky Remarks
2017-03-30 13:53 45 19 42 35 360° 6 - 30.17 30.18 10 CLR 6-hr Min Temp (2pm): 34.0°F
6-hr Max Temp (2pm): 45.0°F
2017-03-30 12:53 43 20 38 39 340° 8 - 30.20 30.21 10 CLR None
2017-03-30 11:53 41 18 37 38 Variable 6 - 30.21 30.23 10 CLR None
2017-03-30 10:53 39 17 33 40 340° 8 - 30.23 30.24 10 CLR None
2017-03-30 09:53 37 19 31 47 330° 8 - 30.24 30.26 10 SCT041 None
2017-03-30 08:53 35 19 27 51 330° 12 - 30.25 30.27 10 OVC037 None
2017-03-30 07:53 34 19 26 53 350° 10 - 30.23 30.25 10 OVC036 6-hr Min Temp (8am): 33.1°F
6-hr Max Temp (8am): 36.0°F
2017-03-30 06:53 33 20 27 58 10° 7 - 30.21 30.23 10 OVC039 None
2017-03-30 05:53 33 19 29 55 20° 5 - 30.20 30.21 10 OVC041 None
2017-03-30 04:53 34 18 29 51 20° 6 - 30.18 30.20 10 BKN044 None
2017-03-30 03:53 34 17 26 49 350° 10 - 30.17 30.19 10 BKN046 None
2017-03-30 02:53 35 19 26 51 350° 13 - 30.16 30.18 10 OVC044 None
2017-03-30 01:53 36 20 25 51 10° 12 21 30.17 30.18 10 OVC045 6-hr Min Temp (2am): 35.1°F
6-hr Max Temp (2am): 37.0°F
2017-03-30 00:53 37 23 27 56 360° 8 20 30.17 30.19 10 OVC044 24-hr Min Temp (1am): 35.1°F
24-hr Max Temp (1am): 41.0°F
2017-03-29 23:53 37 25 30 61 360° 9 - 30.18 30.19 10 OVC050 None
2017-03-29 22:53 37 25 32 61 350° 7 - 30.19 30.21 10 OVC050 None
2017-03-29 21:53 35 25 31 66 330° 5 - 30.20 30.21 10 FEW047 BKN060 None
2017-03-29 20:53 36 25 26 63 310° 10 17 30.18 30.20 10 BKN065 None
2017-03-29 19:53 37 25 31 61 320° 8 - 30.16 30.18 10 CLR 6-hr Min Temp (8pm): 37.0°F
6-hr Max Temp (8pm): 41.0°F
2017-03-29 18:53 38 24 26 56 320° 16 30 30.14 30.15 10 OVC065 Peak wind: 29 mph (26 kts) from 320° at 48 min
2017-03-29 17:53 39 23 28 52 340° 16 24 30.11 30.13 10 OVC065 None
2017-03-29 16:53 40 24 30 52 340° 10 20 30.09 30.11 10 BKN046 OVC060 None
2017-03-29 15:53 40 26 34 57 330° 8 - 30.10 30.11 10 FEW036 OVC055 None
2017-03-29 14:53 39 25 31 56 350° 13 - 30.10 30.11 10 OVC037 None

Support USWX by starting your Amazon purchase here.